Terminal Aerodrome Forecast
Issued by NWS

Home | Current Version | Previous Version | Text Only | Print | Product List | Glossary On
Versions: 1 2 3 4 5 6 7 8 9 10 11 12 13 14 15
000
FTUS43 KFGF 202300
TAFDVL
TAF
KDVL 202326Z 2100/2124 20012G18KT P6SM BKN200
     FM210200 31015G22KT P6SM BKN080
     FM210600 29010KT P6SM SCT100
     FM211300 33019G26KT P6SM BKN030
      AMD LTD TO CLD VIS AND WIND=

USA.gov is the U.S. government's official web portal to all federal, state and local government web resources and services.